Brunswick, GA

3:12 PM EDT on April 20, 2018 (GMT -0400)
Glynco Jetport

Weather History for KBQK - January, 2014

Change the Weather History Date:

Friday, January 3, 2014

  Actual Average Record
Temperature  
Mean Temperature 39 °F -  
Max Temperature 46 °F 63 °F 79 °F (1947)
Min Temperature 32 °F 44 °F 19 °F (2001)
Degree Days  
Heating Degree Days 26    
Moisture  
Dew Point 23 °F    
Average Humidity 58    
Maximum Humidity 81    
Minimum Humidity 36    
Precipitation  
Precipitation 0.00 in - - ()
Sea Level Pressure  
Sea Level Pressure 30.26 in    
Wind  
Wind Speed 10 mph (NNW)    
Max Wind Speed 16 mph    
Max Gust Speed 29 mph    
Visibility 10 miles    
Events      
Averages and records for this station are not official NWS values.
T = Trace of Precipitation, MM = Missing Value Source: NWS Daily Summary

Daily Weather History Graph

Daily Weather History Graph

Search for Another Location

Airport or City:

Astronomy

Jan. 03, 2014 Rise Set
Actual Time 7:25 AM EST 5:35 PM EST
Civil Twilight 6:58 AM EST 6:02 PM EST
Nautical Twilight 6:28 AM EST 6:32 PM EST
Astronomical Twilight 5:58 AM EST 7:02 PM EST
Moon 9:01 AM EST (1/3) 8:30 PM EST (1/3)
Length of Visible Light 11h 04m
Length of Day
10h 10m
Waxing Crescent, 8% of the Moon is Illuminated
Jan 3
Waxing Crescent
Jan 7
First Quarter
Jan 15
Full
Jan 24
Last Quarter
Jan 30
New

Hourly Weather History & Observations

Time (EST) Temp. Windchill Dew Point Humidity Pressure Visibility Wind Dir Wind Speed Gust Speed Precip Events Conditions
12:15 AM 46.4 °F 40.7 °F 32.0 °F 57% 29.97 in 10.0 mi WNW 12.7 mph 23.0 mph N/A   Clear
12:35 AM 44.6 °F 38.4 °F 32.0 °F 61% 29.97 in 10.0 mi WNW 12.7 mph 21.9 mph N/A   Clear
12:55 AM 44.6 °F 41.4 °F 32.0 °F 61% 29.98 in 10.0 mi West 5.8 mph - N/A   Clear
1:15 AM 42.8 °F 39.3 °F 33.8 °F 70% 30.00 in 10.0 mi West 5.8 mph - N/A   Clear
1:35 AM 42.8 °F 35.4 °F 33.8 °F 70% 30.01 in 10.0 mi WNW 15.0 mph 24.2 mph N/A   Clear
1:55 AM 42.8 °F 37.0 °F 30.2 °F 61% 30.02 in 10.0 mi West 10.4 mph - N/A   Clear
2:15 AM 41.0 °F 33.5 °F 28.4 °F 61% 30.03 in 10.0 mi WNW 13.8 mph 21.9 mph N/A   Clear
2:35 AM 41.0 °F 32.8 °F 28.4 °F 61% 30.05 in 10.0 mi WNW 16.1 mph 27.6 mph N/A   Clear
2:55 AM 39.2 °F 31.6 °F 28.4 °F 65% 30.06 in 10.0 mi WNW 12.7 mph 20.7 mph N/A   Clear
3:15 AM 37.4 °F 28.9 °F 26.6 °F 65% 30.07 in 10.0 mi WNW 13.8 mph 28.8 mph N/A   Clear
3:35 AM 37.4 °F 28.9 °F 26.6 °F 65% 30.09 in 10.0 mi NW 13.8 mph 24.2 mph N/A   Clear
3:55 AM 35.6 °F 25.9 °F 28.4 °F 75% 30.10 in 10.0 mi NW 16.1 mph 23.0 mph N/A   Clear
4:15 AM 35.6 °F 26.2 °F 24.8 °F 65% 30.12 in 10.0 mi WNW 15.0 mph 20.7 mph N/A   Clear
4:35 AM 33.8 °F 24.8 °F 24.8 °F 70% 30.12 in 10.0 mi WNW 12.7 mph 20.7 mph N/A   Clear
4:55 AM 33.8 °F 24.8 °F 23.0 °F 65% 30.13 in 10.0 mi NW 12.7 mph 17.3 mph N/A   Clear
5:15 AM 33.8 °F 25.8 °F 23.0 °F 65% 30.15 in 10.0 mi NW 10.4 mph 18.4 mph N/A   Clear
5:35 AM 32.0 °F 24.2 °F 23.0 °F 69% 30.16 in 10.0 mi NW 9.2 mph 18.4 mph N/A   Clear
5:55 AM 32.0 °F 24.8 °F 23.0 °F 69% 30.18 in 10.0 mi NW 8.1 mph 18.4 mph N/A   Clear
6:15 AM 32.0 °F 24.8 °F 21.2 °F 64% 30.18 in 10.0 mi NW 8.1 mph 16.1 mph N/A   Clear
6:35 AM 32.0 °F 24.8 °F 21.2 °F 64% 30.19 in 10.0 mi NW 8.1 mph 16.1 mph N/A   Clear
6:55 AM 32.0 °F 24.8 °F 21.2 °F 64% 30.21 in 10.0 mi NNW 8.1 mph - N/A   Clear
7:15 AM 32.0 °F 24.2 °F 21.2 °F 64% 30.23 in 10.0 mi NW 9.2 mph - N/A   Clear
7:35 AM 32.0 °F 23.0 °F 21.2 °F 64% 30.24 in 10.0 mi NW 11.5 mph 18.4 mph N/A   Clear
7:55 AM 32.0 °F 24.8 °F 21.2 °F 64% 30.25 in 10.0 mi NW 8.1 mph - N/A   Clear
8:15 AM 32.0 °F 24.2 °F 21.2 °F 64% 30.27 in 10.0 mi NW 9.2 mph - N/A   Clear
8:35 AM 32.0 °F 24.2 °F 21.2 °F 64% 30.29 in 10.0 mi NW 9.2 mph 17.3 mph N/A   Clear
8:55 AM 32.0 °F 24.8 °F 19.4 °F 60% 30.29 in 10.0 mi WNW 8.1 mph 19.6 mph N/A   Clear
9:15 AM 33.8 °F 26.4 °F 21.2 °F 60% 30.31 in 10.0 mi NNW 9.2 mph - N/A   Clear
9:35 AM 33.8 °F 25.8 °F 17.6 °F 52% 30.31 in 10.0 mi NW 10.4 mph 24.2 mph N/A   Clear
9:55 AM 33.8 °F 24.3 °F 19.4 °F 56% 30.32 in 10.0 mi NNW 13.8 mph 20.7 mph N/A   Clear
10:15 AM 33.8 °F 24.8 °F 17.6 °F 52% 30.32 in 10.0 mi North 12.7 mph 18.4 mph N/A   Clear
10:35 AM 35.6 °F 28.0 °F 19.4 °F 52% 30.32 in 10.0 mi NNW 10.4 mph 16.1 mph N/A   Clear
10:55 AM 35.6 °F 28.0 °F 17.6 °F 48% 30.32 in 10.0 mi North 10.4 mph 19.6 mph N/A   Clear
11:15 AM 37.4 °F 29.3 °F 19.4 °F 48% 30.32 in 10.0 mi NNW 12.7 mph 17.3 mph N/A   Clear
11:35 AM 37.4 °F 30.8 °F 19.4 °F 48% 30.32 in 10.0 mi NNW 9.2 mph 17.3 mph N/A   Clear
11:55 AM 39.2 °F 32.0 °F 19.4 °F 45% 30.31 in 10.0 mi NNW 11.5 mph 20.7 mph N/A   Clear
12:15 PM 41.0 °F 35.2 °F 17.6 °F 39% 30.31 in 10.0 mi NNW 9.2 mph 17.3 mph N/A   Clear
12:35 PM 41.0 °F 34.7 °F 17.6 °F 39% 30.30 in 10.0 mi North 10.4 mph 16.1 mph N/A   Clear
12:55 PM 41.0 °F 34.7 °F 15.8 °F 36% 30.30 in 10.0 mi North 10.4 mph 17.3 mph N/A   Clear
1:15 PM 41.0 °F 36.4 °F 17.6 °F 39% 30.29 in 10.0 mi NNE 6.9 mph 18.4 mph N/A   Clear
1:35 PM 42.8 °F 37.5 °F 17.6 °F 36% 30.29 in 10.0 mi NE 9.2 mph - N/A   Clear
1:55 PM 42.8 °F 38.0 °F 17.6 °F 36% 30.29 in 10.0 mi North 8.1 mph 17.3 mph N/A   Clear
2:15 PM 42.8 °F 38.0 °F 17.6 °F 36% 30.29 in 10.0 mi NNE 8.1 mph - N/A   Clear
2:35 PM 42.8 °F 39.3 °F 19.4 °F 39% 30.29 in 10.0 mi North 5.8 mph - N/A   Clear
2:55 PM 42.8 °F 37.5 °F 19.4 °F 39% 30.30 in 10.0 mi NE 9.2 mph - N/A   Clear
3:15 PM 42.8 °F 37.5 °F 17.6 °F 36% 30.31 in 10.0 mi North 9.2 mph 16.1 mph N/A   Clear
3:35 PM 42.8 °F 38.0 °F 17.6 °F 36% 30.32 in 10.0 mi NNE 8.1 mph - N/A   Clear
3:55 PM 42.8 °F - 17.6 °F 36% 30.32 in 10.0 mi Calm Calm - N/A   Clear
4:15 PM 42.8 °F 38.6 °F 19.4 °F 39% 30.33 in 10.0 mi NNE 6.9 mph - N/A   Clear
4:35 PM 42.8 °F 38.6 °F 17.6 °F 36% 30.33 in 10.0 mi NNE 6.9 mph - N/A   Clear
4:55 PM 42.8 °F 39.3 °F 19.4 °F 39% 30.34 in 10.0 mi NNE 5.8 mph - N/A   Clear
5:15 PM 41.0 °F 37.1 °F 19.4 °F 42% 30.34 in 10.0 mi NNE 5.8 mph - N/A   Clear
5:35 PM 39.2 °F - 21.2 °F 49% 30.35 in 10.0 mi Calm Calm - N/A   Clear
5:55 PM 35.6 °F - 28.4 °F 75% 30.36 in 10.0 mi Calm Calm - N/A   Clear
6:15 PM 35.6 °F 32.8 °F 26.6 °F 70% 30.36 in 10.0 mi NNE 3.5 mph - N/A   Clear
6:35 PM 33.8 °F 30.8 °F 26.6 °F 75% 30.37 in 10.0 mi North 3.5 mph - N/A   Clear
6:55 PM 33.8 °F 30.8 °F 28.4 °F 81% 30.38 in 10.0 mi North 3.5 mph - N/A   Clear
7:15 PM 33.8 °F 30.8 °F 26.6 °F 75% 30.39 in 10.0 mi North 3.5 mph - N/A   Clear
7:35 PM 33.8 °F 29.6 °F 24.8 °F 70% 30.39 in 10.0 mi North 4.6 mph - N/A   Clear
7:55 PM 33.8 °F 30.8 °F 24.8 °F 70% 30.39 in 10.0 mi North 3.5 mph - N/A   Clear
8:15 PM 33.8 °F 29.6 °F 23.0 °F 65% 30.39 in 10.0 mi NNE 4.6 mph - N/A   Clear
8:35 PM 33.8 °F 29.6 °F 23.0 °F 65% 30.40 in 10.0 mi NNE 4.6 mph - N/A   Clear
8:55 PM 35.6 °F 31.7 °F 23.0 °F 60% 30.40 in 10.0 mi North 4.6 mph - N/A   Clear
9:15 PM 35.6 °F 30.7 °F 23.0 °F 60% 30.39 in 10.0 mi North 5.8 mph - N/A   Clear
9:35 PM 35.6 °F 31.7 °F 23.0 °F 60% 30.39 in 10.0 mi North 4.6 mph - N/A   Clear
9:55 PM 35.6 °F 30.7 °F 23.0 °F 60% 30.39 in 10.0 mi North 5.8 mph - N/A   Clear
10:15 PM 35.6 °F 30.7 °F 24.8 °F 65% 30.39 in 10.0 mi North 5.8 mph - N/A   Scattered Clouds
10:35 PM 35.6 °F 30.7 °F 24.8 °F 65% 30.39 in 10.0 mi North 5.8 mph - N/A   Mostly Cloudy
10:55 PM 35.6 °F 29.9 °F 26.6 °F 70% 30.39 in 10.0 mi North 6.9 mph - N/A   Overcast
11:15 PM 35.6 °F 29.9 °F 26.6 °F 70% 30.38 in 10.0 mi North 6.9 mph - N/A   Overcast
11:35 PM 35.6 °F 29.2 °F 26.6 °F 70% 30.36 in 10.0 mi North 8.1 mph - N/A   Scattered Clouds
11:55 PM 35.6 °F 29.9 °F 26.6 °F 70% 30.35 in 10.0 mi NNW 6.9 mph - N/A   Scattered Clouds